Hadley, Minnesota
Current Conditions -  °F | °C
As of 1:14 PM on Tuesday 21 Oct 2014 (Local Time) from KDVP Reporting Station
Clear Clear  
Wind Chill: 67°   Ceiling: Unl
Heat Index: 67°   Visibility: 10mi
Dew Point: 37°   Wind: 14mph
Humidity: 32%   Direction: 140°SE
Pressure: 30.06"   Gusts: NA
Location:  44.0326°N, 95.9478°W
Report Text: KDVP 211814Z AUTO 14012KT 10SM CLR 20/03 A3006 RMK AO2 T01970026
Loading
Personal Weather Stations






























Interactive Weather Map
Tropical Storm Tracking
New forecast layout! Learn more

10-Day Weather Forecast

Advertisements
Track Severe Weather on mobile